Time;durP1;ratioP1;P1;durP2;ratioP2;P2;SDS_P1;SDS_P2;PMS_P1;PMS_P2;Temp;Humidity;BMP_temperature;BMP_pressure;BME280_temperature;BME280_humidity;BME280_pressure;Samples;Min_cycle;Max_cycle;Signal;HPM_P1;HPM_P2
2022/10/09 00:01:10;;;;;;;37.40;27.17;;;19.50;94.30;;;;;;6339467;22;20426;-90
2022/10/09 00:03:38;;;;;;;34.00;27.33;;;19.40;94.40;;;;;;6338875;22;20009;-80
2022/10/09 00:06:05;;;;;;;36.38;27.88;;;19.40;94.50;;;;;;6338194;22;20003;-80
2022/10/09 00:08:32;;;;;;;36.60;28.77;;;19.40;94.50;;;;;;6337373;22;19995;-80
2022/10/09 00:10:58;;;;;;;40.47;30.58;;;19.40;94.40;;;;;;6337700;22;20329;-80
2022/10/09 00:13:24;;;;;;;38.47;30.88;;;19.40;94.50;;;;;;6337487;22;20001;-80
2022/10/09 00:15:49;;;;;;;38.40;28.75;;;19.40;94.60;;;;;;6337814;22;20428;-81
2022/10/09 00:18:17;;;;;;;36.45;28.40;;;19.30;94.80;;;;;;6337564;22;19999;-78
2022/10/09 00:20:45;;;;;;;41.28;29.88;;;19.30;94.80;;;;;;6337702;22;20066;-79
2022/10/09 00:23:16;;;;;;;35.30;28.27;;;19.30;94.80;;;;;;6338469;22;20448;-79
2022/10/09 00:25:59;;;;;;;41.42;31.25;;;19.30;94.90;;;;;;6339143;22;20006;-78
2022/10/09 00:28:27;;;;;;;38.38;30.48;;;19.30;94.90;;;;;;6339439;22;19995;-79
2022/10/09 00:30:53;;;;;;;41.58;31.55;;;19.30;94.90;;;;;;6338906;22;19999;-78
2022/10/09 00:33:20;;;;;;;41.33;30.30;;;19.20;94.90;;;;;;6339198;22;19995;-79
2022/10/09 00:35:46;;;;;;;42.55;31.90;;;19.20;94.90;;;;;;6338992;22;20048;-79
2022/10/09 00:38:12;;;;;;;49.22;33.85;;;19.10;94.90;;;;;;6339507;22;20303;-78
2022/10/09 00:40:38;;;;;;;43.10;34.30;;;19.10;94.90;;;;;;6338608;22;20048;-79
2022/10/09 00:43:12;;;;;;;47.00;35.03;;;19.10;95.00;;;;;;6338769;22;20001;-80
2022/10/09 00:45:40;;;;;;;39.90;31.90;;;19.00;95.20;;;;;;6338767;22;20006;-80
2022/10/09 00:48:09;;;;;;;53.10;34.38;;;18.90;95.40;;;;;;6338761;22;20417;-79
2022/10/09 00:50:39;;;;;;;35.30;28.10;;;18.80;95.20;;;;;;6338835;22;20049;-80
2022/10/09 00:53:04;;;;;;;;;;;18.90;95.50;;;;;;6339582;22;20073;-80
2022/10/09 00:55:33;;;;;;;37.78;28.20;;;18.90;95.40;;;;;;6338925;22;19929;-85
2022/10/09 00:58:00;;;;;;;41.22;30.13;;;18.90;95.40;;;;;;6339582;22;20014;-85
2022/10/09 01:00:26;;;;;;;42.33;31.08;;;18.90;95.50;;;;;;6339609;22;20405;-84
2022/10/09 01:02:53;;;;;;;39.92;30.17;;;18.90;95.60;;;;;;6339637;22;19999;-88
2022/10/09 01:05:29;;;;;;;49.45;36.20;;;19.00;95.50;;;;;;6338977;22;20359;-87
2022/10/09 01:08:04;;;;;;;46.67;33.70;;;18.90;95.70;;;;;;6339187;22;20085;-85
2022/10/09 01:10:57;;;;;;;55.50;38.22;;;18.90;95.80;;;;;;6338789;22;20003;-84
2022/10/09 01:13:59;;;;;;;56.55;38.70;;;18.80;96.10;;;;;;6338561;22;20002;-83
2022/10/09 01:16:35;;;;;;;69.63;42.75;;;18.80;96.40;;;;;;6312378;22;20444;-83
2022/10/09 01:19:13;;;;;;;61.53;37.55;;;18.70;96.70;;;;;;6337910;22;20143;-84
2022/10/09 01:22:26;;;;;;;71.18;39.95;;;18.80;96.70;;;;;;6339024;22;20006;-83
2022/10/09 01:24:57;;;;;;;73.80;40.92;;;18.70;96.90;;;;;;6243683;22;20003;-84
2022/10/09 01:27:25;;;;;;;52.85;34.25;;;18.70;97.00;;;;;;6338718;22;20045;-82
2022/10/09 01:30:02;;;;;;;50.25;32.78;;;18.70;97.40;;;;;;6338847;22;20003;-84
2022/10/09 01:32:32;;;;;;;51.63;32.92;;;18.70;97.30;;;;;;6338986;22;20002;-83
2022/10/09 01:35:00;;;;;;;50.03;33.65;;;18.70;97.10;;;;;;6337943;22;20006;-83
2022/10/09 01:37:29;;;;;;;43.47;28.52;;;18.80;97.00;;;;;;6339324;22;20003;-83
2022/10/09 01:39:56;;;;;;;53.67;34.88;;;18.80;96.90;;;;;;6338255;22;20007;-82
2022/10/09 01:42:25;;;;;;;39.25;29.33;;;18.90;96.70;;;;;;6338738;22;20006;-83
2022/10/09 01:44:50;;;;;;;45.47;30.75;;;18.80;96.80;;;;;;6338571;22;20006;-82
2022/10/09 01:47:18;;;;;;;40.75;27.40;;;18.90;96.70;;;;;;6338760;22;20002;-82
2022/10/09 01:50:02;;;;;;;43.97;30.00;;;18.90;96.40;;;;;;6338715;22;20006;-83
2022/10/09 01:52:51;;;;;;;38.85;27.17;;;18.90;96.20;;;;;;6338322;22;20022;-82
2022/10/09 01:55:17;;;;;;;33.90;25.77;;;18.90;96.40;;;;;;6338847;22;20477;-82
2022/10/09 01:57:51;;;;;;;34.63;23.48;;;18.90;96.20;;;;;;6338118;22;20038;-84
2022/10/09 02:00:18;;;;;;;32.05;24.50;;;19.00;96.10;;;;;;6339375;22;20003;-84
2022/10/09 02:02:45;;;;;;;37.10;27.23;;;19.00;96.00;;;;;;6338126;22;20014;-84
2022/10/09 02:05:18;;;;;;;36.25;25.38;;;19.00;95.80;;;;;;6338357;22;19999;-84
2022/10/09 02:07:44;;;;;;;28.20;22.80;;;19.00;95.70;;;;;;6339009;22;19999;-84
2022/10/09 02:10:12;;;;;;;30.33;24.20;;;19.00;95.70;;;;;;6337828;22;19995;-83
2022/10/09 02:12:42;;;;;;;27.70;21.88;;;19.00;95.60;;;;;;6310677;22;20006;-82
2022/10/09 02:15:08;;;;;;;;;;;19.00;95.80;;;;;;6338696;22;20473;-82
2022/10/09 02:17:42;;;;;;;27.70;21.23;;;19.00;95.50;;;;;;6336224;22;19898;-90
2022/10/09 02:20:14;;;;;;;30.45;23.65;;;19.00;95.40;;;;;;6338853;22;20053;-86
2022/10/09 02:22:40;;;;;;;37.40;27.20;;;18.90;95.30;;;;;;6339296;22;20048;-83
2022/10/09 02:25:06;;;;;;;28.05;22.33;;;18.90;95.30;;;;;;6338998;22;20108;-85
2022/10/09 02:27:33;;;;;;;37.15;26.38;;;18.80;95.60;;;;;;6338398;22;20004;-83
2022/10/09 02:30:00;;;;;;;29.88;24.58;;;18.70;95.60;;;;;;6338659;22;19998;-85
2022/10/09 02:32:27;;;;;;;35.83;25.88;;;18.70;95.90;;;;;;6338667;22;19995;-82
2022/10/09 02:34:52;;;;;;;38.67;28.08;;;18.70;95.80;;;;;;6338402;22;20005;-81
2022/10/09 02:37:18;;;;;;;33.03;27.30;;;18.60;95.90;;;;;;6310265;22;20034;-81
2022/10/09 02:39:44;;;;;;;43.05;30.20;;;18.60;96.20;;;;;;6337266;22;20317;-81
2022/10/09 02:42:10;;;;;;;35.40;26.88;;;18.50;96.20;;;;;;6338461;22;19995;-82
2022/10/09 02:44:35;;;;;;;34.95;27.80;;;18.40;96.80;;;;;;6311224;22;20094;-82
2022/10/09 02:47:01;;;;;;;42.08;26.70;;;18.40;96.60;;;;;;6338211;22;20135;-82
2022/10/09 02:49:27;;;;;;;35.47;25.58;;;18.40;96.70;;;;;;6338591;22;20405;-84
2022/10/09 02:51:52;;;;;;;31.45;24.10;;;18.40;96.60;;;;;;6337099;22;19999;-84
2022/10/09 02:54:18;;;;;;;35.25;25.17;;;18.50;96.40;;;;;;6338188;22;20617;-84
2022/10/09 02:56:44;;;;;;;26.40;20.42;;;18.50;96.20;;;;;;6338219;22;20010;-85
2022/10/09 02:59:10;;;;;;;29.50;23.30;;;18.50;96.10;;;;;;6338162;22;20003;-85
2022/10/09 03:01:35;;;;;;;31.95;24.33;;;18.60;96.10;;;;;;6309752;22;20428;-85
2022/10/09 03:04:01;;;;;;;29.00;23.30;;;18.60;95.90;;;;;;6336704;22;20094;-85
2022/10/09 03:06:28;;;;;;;27.52;21.42;;;18.60;95.80;;;;;;6338196;22;19999;-86
2022/10/09 03:08:55;;;;;;;31.00;22.40;;;18.60;95.90;;;;;;6338100;22;20044;-83
2022/10/09 03:11:23;;;;;;;28.63;22.88;;;18.60;95.90;;;;;;6338028;22;20009;-85
2022/10/09 03:13:49;;;;;;;31.48;24.17;;;18.60;95.80;;;;;;6337900;22;19995;-84
2022/10/09 03:16:17;;;;;;;27.30;23.02;;;18.50;95.70;;;;;;6337235;22;20048;-89
2022/10/09 03:18:43;;;;;;;28.05;22.40;;;18.50;95.80;;;;;;6339123;22;20055;-88
2022/10/09 03:21:14;;;;;;;24.35;20.90;;;18.50;95.80;;;;;;6338858;22;20030;-90
2022/10/09 03:23:40;;;;;;;36.00;24.17;;;18.50;95.80;;;;;;6339157;22;20432;-85
2022/10/09 03:26:09;;;;;;;27.88;20.73;;;18.50;95.80;;;;;;6337952;22;20002;-85
2022/10/09 03:28:40;;;;;;;29.90;22.50;;;18.40;95.70;;;;;;6338461;22;20409;-86
2022/10/09 03:31:06;;;;;;;29.83;22.95;;;18.40;95.80;;;;;;6338820;22;19999;-85
2022/10/09 03:33:33;;;;;;;24.95;21.63;;;18.30;95.80;;;;;;6338285;22;19999;-84
2022/10/09 03:35:58;;;;;;;28.55;21.67;;;18.40;95.90;;;;;;6337326;22;19995;-84
2022/10/09 03:38:24;;;;;;;26.63;22.02;;;18.40;95.80;;;;;;6309736;22;20006;-86
2022/10/09 03:40:50;;;;;;;22.08;19.00;;;18.40;95.70;;;;;;6338133;22;19995;-87
2022/10/09 03:43:15;;;;;;;30.17;22.85;;;18.50;95.70;;;;;;6338772;22;19999;-86
2022/10/09 03:45:42;;;;;;;28.77;21.25;;;18.40;95.40;;;;;;6338479;22;19995;-85
2022/10/09 03:48:10;;;;;;;26.13;20.92;;;18.40;95.50;;;;;;6338042;22;19999;-86
2022/10/09 03:50:39;;;;;;;27.55;21.63;;;18.40;95.40;;;;;;6337645;22;20048;-84
2022/10/09 03:53:07;;;;;;;26.65;21.52;;;18.40;95.40;;;;;;6310895;22;20059;-84
2022/10/09 03:55:32;;;;;;;23.90;19.38;;;18.40;95.40;;;;;;6337516;22;20003;-85
2022/10/09 03:57:58;;;;;;;32.05;23.17;;;18.40;95.50;;;;;;6339005;22;20041;-84
2022/10/09 04:00:24;;;;;;;27.63;19.98;;;18.40;95.30;;;;;;6339170;22;20013;-85
2022/10/09 04:02:50;;;;;;;28.08;21.90;;;18.30;95.40;;;;;;6340073;22;20010;-84
2022/10/09 04:05:16;;;;;;;25.80;18.98;;;18.30;95.30;;;;;;6339146;22;19999;-82
2022/10/09 04:07:41;;;;;;;27.50;20.10;;;18.30;95.40;;;;;;6340194;22;20356;-81
2022/10/09 04:10:07;;;;;;;22.98;18.13;;;18.30;95.30;;;;;;6338887;22;20356;-84
2022/10/09 04:12:33;;;;;;;23.33;17.73;;;18.40;95.20;;;;;;6339923;22;20092;-84
2022/10/09 04:14:59;;;;;;;21.73;17.90;;;18.40;95.20;;;;;;6340096;22;20002;-85
2022/10/09 04:17:25;;;;;;;25.15;18.40;;;18.40;95.00;;;;;;6340017;22;20051;-84
2022/10/09 04:19:51;;;;;;;24.73;19.90;;;18.40;95.10;;;;;;6339987;22;20003;-84
2022/10/09 04:22:17;;;;;;;21.27;18.35;;;18.40;94.80;;;;;;6339457;22;20010;-86
2022/10/09 04:24:42;;;;;;;20.27;18.08;;;18.40;95.00;;;;;;6339814;22;20002;-85
2022/10/09 04:27:08;;;;;;;24.15;19.00;;;18.40;95.00;;;;;;6340606;22;20360;-85
2022/10/09 04:29:33;;;;;;;22.67;18.05;;;18.40;94.90;;;;;;6339597;22;20048;-86
2022/10/09 04:32:00;;;;;;;24.38;17.83;;;18.40;94.80;;;;;;6339946;22;20031;-89
2022/10/09 04:34:25;;;;;;;23.23;17.55;;;18.40;94.70;;;;;;6340276;22;20079;-89
2022/10/09 04:36:51;;;;;;;24.20;17.35;;;18.40;94.80;;;;;;6340141;22;20006;-84
2022/10/09 04:39:16;;;;;;;22.60;17.13;;;18.30;94.90;;;;;;6339463;22;20012;-84
2022/10/09 04:41:42;;;;;;;21.75;16.67;;;18.30;94.90;;;;;;6339851;22;20009;-85
2022/10/09 04:44:08;;;;;;;26.02;17.55;;;18.30;94.90;;;;;;6339401;22;19999;-85
2022/10/09 04:46:34;;;;;;;21.67;16.17;;;18.30;95.00;;;;;;6338828;22;20427;-85
2022/10/09 04:49:00;;;;;;;22.35;16.92;;;18.30;95.00;;;;;;6340266;22;20026;-88
2022/10/09 04:51:26;;;;;;;22.88;15.35;;;18.30;95.00;;;;;;6340127;22;20413;-87
2022/10/09 04:53:53;;;;;;;21.15;17.00;;;18.30;95.00;;;;;;6340329;22;20006;-90
2022/10/09 04:56:20;;;;;;;19.65;15.63;;;18.30;95.00;;;;;;6340867;22;20014;-91
2022/10/09 04:58:46;;;;;;;21.25;16.67;;;18.30;94.90;;;;;;6341192;22;20006;-88
2022/10/09 05:01:15;;;;;;;21.63;17.33;;;18.30;94.70;;;;;;6340746;22;20077;-93
2022/10/09 05:03:41;;;;;;;22.67;16.77;;;18.30;94.70;;;;;;6340772;22;20007;-91
2022/10/09 05:06:09;;;;;;;17.75;14.38;;;18.30;94.70;;;;;;6314776;22;20633;-96
2022/10/09 05:08:36;;;;;;;19.80;14.75;;;18.30;94.60;;;;;;6318109;22;20007;-96
2022/10/09 05:11:04;;;;;;;17.23;13.95;;;18.30;94.60;;;;;;6316886;22;19999;-93
2022/10/09 05:13:31;;;;;;;16.30;13.63;;;18.30;94.40;;;;;;6313170;22;20086;-91
2022/10/09 05:16:01;;;;;;;18.58;13.38;;;18.30;94.40;;;;;;6340444;22;19995;-92
2022/10/09 05:18:27;;;;;;;18.20;13.98;;;18.30;94.30;;;;;;6340404;22;20363;-92
2022/10/09 05:20:53;;;;;;;21.42;15.90;;;18.30;94.30;;;;;;6339966;22;19995;-89
2022/10/09 05:23:19;;;;;;;18.38;14.55;;;18.20;94.10;;;;;;6340502;22;20002;-92
2022/10/09 05:25:57;;;;;;;19.20;13.70;;;18.20;94.20;;;;;;6313423;22;20079;-91
2022/10/09 05:28:23;;;;;;;20.27;13.60;;;18.20;94.20;;;;;;6340123;22;20003;-89
2022/10/09 05:30:49;;;;;;;18.35;13.52;;;18.20;94.10;;;;;;6339793;22;20015;-89
2022/10/09 05:33:16;;;;;;;15.60;12.15;;;18.20;94.10;;;;;;6340305;22;19999;-87
2022/10/09 05:35:53;;;;;;;18.17;13.68;;;18.20;94.00;;;;;;6339667;22;19999;-89
2022/10/09 05:38:20;;;;;;;18.75;13.63;;;18.20;94.00;;;;;;6340382;22;19999;-89
2022/10/09 05:41:06;;;;;;;22.90;14.30;;;18.30;94.10;;;;;;6339893;22;20459;-89
2022/10/09 05:43:37;;;;;;;18.98;13.65;;;18.30;94.10;;;;;;6339516;22;20065;-90
2022/10/09 05:46:08;;;;;;;16.83;12.73;;;18.30;94.20;;;;;;6339599;22;20121;-89
2022/10/09 05:48:35;;;;;;;17.45;13.05;;;18.40;94.00;;;;;;6339499;22;19999;-89
2022/10/09 05:51:12;;;;;;;16.77;12.50;;;18.40;94.00;;;;;;6339319;22;20117;-88
2022/10/09 05:53:39;;;;;;;16.25;12.45;;;18.40;94.00;;;;;;6312023;22;20003;-87
2022/10/09 05:56:14;;;;;;;15.07;11.43;;;18.40;94.00;;;;;;6338545;22;20006;-87
2022/10/09 05:58:40;;;;;;;18.63;12.90;;;18.40;94.00;;;;;;6338730;22;20027;-87
2022/10/09 06:01:07;;;;;;;15.43;11.43;;;18.40;94.00;;;;;;6338384;22;20429;-85
2022/10/09 06:03:37;;;;;;;12.85;10.30;;;18.40;93.90;;;;;;6311068;22;20006;-82
2022/10/09 06:06:05;;;;;;;14.40;11.32;;;18.40;93.80;;;;;;6337756;22;19995;-83
2022/10/09 06:08:32;;;;;;;15.65;10.15;;;18.40;93.70;;;;;;6339385;22;20033;-90
2022/10/09 06:11:06;;;;;;;14.75;10.50;;;18.50;93.80;;;;;;6338104;22;20022;-85
2022/10/09 06:13:32;;;;;;;11.68;9.35;;;18.50;93.60;;;;;;6309885;22;20009;-84
2022/10/09 06:15:58;;;;;;;13.07;10.07;;;18.50;93.40;;;;;;6337537;22;20026;-85
2022/10/09 06:18:26;;;;;;;12.05;9.75;;;18.60;93.30;;;;;;6337830;22;20003;-90
2022/10/09 06:20:56;;;;;;;14.90;9.63;;;18.60;93.20;;;;;;6340971;22;19998;-83
2022/10/09 06:23:22;;;;;;;;;;;18.60;93.00;;;;;;6338385;22;20029;-84
2022/10/09 06:25:51;;;;;;;11.45;8.55;;;18.60;92.90;;;;;;6336464;22;19899;-84
2022/10/09 06:28:17;;;;;;;13.55;9.13;;;18.70;92.60;;;;;;6338236;22;20318;-84
2022/10/09 06:30:43;;;;;;;13.43;8.90;;;18.70;92.40;;;;;;6309640;22;19999;-85
2022/10/09 06:33:09;;;;;;;10.95;9.10;;;18.60;92.30;;;;;;6309381;22;20398;-86
2022/10/09 06:35:35;;;;;;;14.73;9.77;;;18.70;92.20;;;;;;6338363;22;20006;-85
2022/10/09 06:38:00;;;;;;;11.13;9.02;;;18.60;92.20;;;;;;6338808;22;20018;-83
2022/10/09 06:40:26;;;;;;;11.10;8.15;;;18.70;92.20;;;;;;6337046;22;20003;-85
2022/10/09 06:42:51;;;;;;;13.77;9.25;;;18.70;92.40;;;;;;6336557;22;19999;-86
2022/10/09 06:45:17;;;;;;;9.80;7.28;;;18.70;92.10;;;;;;6337956;22;20440;-87
2022/10/09 06:47:43;;;;;;;9.73;7.60;;;18.70;91.90;;;;;;6337664;22;20325;-80
2022/10/09 06:50:08;;;;;;;8.82;7.45;;;18.70;92.00;;;;;;6337525;22;20030;-84
2022/10/09 06:52:34;;;;;;;9.57;6.88;;;18.60;91.70;;;;;;6337615;22;19987;-84
2022/10/09 06:55:00;;;;;;;11.60;7.50;;;18.70;91.80;;;;;;6338038;22;20062;-87
2022/10/09 06:57:26;;;;;;;8.93;6.40;;;18.60;91.90;;;;;;6337474;22;20448;-87
2022/10/09 06:59:52;;;;;;;8.27;5.85;;;18.70;91.80;;;;;;6337689;22;20026;-83
2022/10/09 07:02:18;;;;;;;10.82;5.72;;;18.70;91.90;;;;;;6310271;22;20017;-85
2022/10/09 07:04:46;;;;;;;9.00;6.15;;;18.80;91.80;;;;;;6336687;22;20416;-91
2022/10/09 07:07:11;;;;;;;6.72;5.75;;;18.80;91.30;;;;;;6337277;22;20441;-82
2022/10/09 07:09:37;;;;;;;9.23;6.03;;;18.80;91.10;;;;;;6338189;22;19995;-85
2022/10/09 07:12:03;;;;;;;12.60;5.18;;;18.90;90.90;;;;;;6336377;22;19999;-84
2022/10/09 07:14:29;;;;;;;10.48;5.93;;;18.80;91.10;;;;;;6338432;22;19995;-86
2022/10/09 07:16:54;;;;;;;12.30;5.93;;;18.90;91.10;;;;;;6338164;22;19998;-86
2022/10/09 07:19:20;;;;;;;9.00;6.40;;;18.90;91.00;;;;;;6338147;22;19995;-83
2022/10/09 07:21:51;;;;;;;9.00;5.50;;;18.90;90.90;;;;;;6336319;22;20029;-84
2022/10/09 07:24:19;;;;;;;12.32;6.18;;;18.90;91.10;;;;;;6333582;22;20379;-83
2022/10/09 07:26:48;;;;;;;10.63;5.57;;;18.90;91.00;;;;;;6336860;22;20010;-84
2022/10/09 07:29:15;;;;;;;14.82;5.25;;;19.00;91.30;;;;;;6300879;22;20324;-84
2022/10/09 07:31:41;;;;;;;9.45;5.30;;;19.10;91.50;;;;;;6336963;22;19999;-83
2022/10/09 07:34:07;;;;;;;7.57;4.60;;;19.20;91.40;;;;;;6334502;22;20041;-84
2022/10/09 07:36:33;;;;;;;6.68;5.07;;;19.30;91.30;;;;;;6338500;22;19999;-83
2022/10/09 07:38:59;;;;;;;9.38;4.90;;;19.40;91.10;;;;;;6337527;22;20002;-83
2022/10/09 07:41:27;;;;;;;7.05;4.65;;;19.50;91.30;;;;;;6336813;22;20003;-83
2022/10/09 07:43:53;;;;;;;8.88;5.13;;;19.60;91.30;;;;;;6310167;22;20010;-83
2022/10/09 07:46:20;;;;;;;11.10;5.13;;;19.80;91.30;;;;;;6337803;22;19998;-83
2022/10/09 07:48:47;;;;;;;10.90;4.30;;;19.90;91.20;;;;;;6338452;22;20311;-85
2022/10/09 07:51:19;;;;;;;6.68;4.35;;;20.00;91.00;;;;;;6338408;22;19998;-85
2022/10/09 07:53:45;;;;;;;7.03;5.60;;;20.10;90.80;;;;;;6338739;22;20048;-85
2022/10/09 07:56:17;;;;;;;7.82;4.95;;;20.20;90.90;;;;;;6337552;22;20015;-84
2022/10/09 07:58:57;;;;;;;7.90;4.20;;;20.30;90.60;;;;;;6338355;22;20080;-84
2022/10/09 08:01:26;;;;;;;11.18;5.20;;;20.40;90.50;;;;;;6337279;22;20056;-85
2022/10/09 08:03:52;;;;;;;7.30;4.53;;;20.50;90.20;;;;;;6337439;22;20072;-84
2022/10/09 08:06:18;;;;;;;6.35;4.00;;;20.60;90.30;;;;;;6337171;22;20003;-84
2022/10/09 08:08:44;;;;;;;6.10;3.67;;;20.70;90.40;;;;;;6337270;22;20472;-83
2022/10/09 08:11:12;;;;;;;5.00;3.63;;;20.80;90.10;;;;;;6337442;22;20013;-84
2022/10/09 08:13:39;;;;;;;7.10;4.47;;;21.00;90.00;;;;;;6337296;22;19999;-84
2022/10/09 08:16:05;;;;;;;8.90;4.78;;;21.10;89.80;;;;;;6337038;22;20001;-84
2022/10/09 08:18:32;;;;;;;10.52;4.13;;;21.10;89.00;;;;;;6336864;22;20003;-84
2022/10/09 08:21:00;;;;;;;5.32;3.60;;;21.20;89.20;;;;;;6337120;22;20029;-84
2022/10/09 08:23:26;;;;;;;4.88;3.08;;;21.40;89.10;;;;;;6336880;22;20321;-84
2022/10/09 08:25:52;;;;;;;8.82;4.38;;;21.60;89.10;;;;;;6337247;22;20002;-84
2022/10/09 08:28:18;;;;;;;5.18;2.83;;;21.70;88.30;;;;;;6333274;22;20007;-84
2022/10/09 08:30:44;;;;;;;5.47;3.25;;;21.90;88.30;;;;;;6335388;22;19999;-83
2022/10/09 08:33:09;;;;;;;4.95;3.67;;;22.00;87.80;;;;;;6335634;22;19995;-83
2022/10/09 08:35:35;;;;;;;7.90;3.53;;;22.10;87.20;;;;;;6336440;22;19995;-85
2022/10/09 08:38:00;;;;;;;10.68;3.65;;;22.20;86.90;;;;;;6336472;22;20314;-85
2022/10/09 08:40:52;;;;;;;5.63;2.90;;;22.30;87.00;;;;;;6335530;22;20003;-85
2022/10/09 08:43:33;;;;;;;4.53;2.95;;;22.40;87.00;;;;;;6336674;22;20011;-85
2022/10/09 08:46:04;;;;;;;4.25;2.80;;;22.50;86.90;;;;;;6338901;22;20436;-84
2022/10/09 08:48:38;;;;;;;3.45;2.25;;;22.60;86.80;;;;;;6338786;22;20003;-85
2022/10/09 08:51:08;;;;;;;3.28;2.50;;;22.70;86.80;;;;;;6339893;22;20022;-84
2022/10/09 08:53:49;;;;;;;4.28;2.63;;;22.80;86.40;;;;;;6339347;22;20284;-85
2022/10/09 08:56:15;;;;;;;3.65;2.42;;;23.00;85.60;;;;;;6338984;22;20025;-84
2022/10/09 08:58:43;;;;;;;3.55;2.80;;;23.10;85.20;;;;;;6338573;22;20051;-85
2022/10/09 09:01:18;;;;;;;6.22;2.78;;;23.30;83.60;;;;;;6338653;22;20006;-86
2022/10/09 09:04:06;;;;;;;4.30;2.63;;;23.30;82.70;;;;;;6309961;22;20014;-85
2022/10/09 09:06:56;;;;;;;3.35;2.70;;;23.30;82.10;;;;;;6338441;22;20433;-85
2022/10/09 09:09:58;;;;;;;4.60;3.20;;;23.30;81.30;;;;;;6311027;22;20329;-84
2022/10/09 09:12:42;;;;;;;6.97;3.08;;;23.30;80.60;;;;;;6338147;22;19999;-85
2022/10/09 09:15:27;;;;;;;4.57;2.30;;;23.20;80.10;;;;;;6337726;22;20325;-85
2022/10/09 09:18:04;;;;;;;7.60;3.28;;;23.30;81.30;;;;;;6310604;22;20011;-85
2022/10/09 09:20:45;;;;;;;3.45;2.55;;;23.40;79.90;;;;;;6338769;22;20026;-85
2022/10/09 09:23:15;;;;;;;6.45;2.65;;;23.60;79.60;;;;;;6338227;22;20405;-85
2022/10/09 09:25:45;;;;;;;4.15;2.65;;;23.70;78.50;;;;;;6338090;22;20014;-84
2022/10/09 09:28:29;;;;;;;9.15;3.00;;;23.90;79.50;;;;;;6338094;22;19999;-84
2022/10/09 09:31:06;;;;;;;5.57;2.78;;;24.20;79.30;;;;;;6339215;22;20066;-84
2022/10/09 09:33:41;;;;;;;7.88;2.40;;;24.30;78.30;;;;;;6338206;22;20358;-84
2022/10/09 09:36:30;;;;;;;4.25;2.35;;;24.40;77.40;;;;;;6338851;22;20023;-83
2022/10/09 09:38:55;;;;;;;5.78;2.63;;;24.60;76.50;;;;;;6339400;22;20029;-84
2022/10/09 09:41:21;;;;;;;5.97;2.60;;;24.70;76.00;;;;;;6339020;22;20525;-84
2022/10/09 09:43:47;;;;;;;3.28;2.30;;;24.70;75.10;;;;;;6335416;22;20030;-84
2022/10/09 09:46:19;;;;;;;7.75;2.70;;;24.80;75.40;;;;;;6336558;22;20401;-85
2022/10/09 09:48:47;;;;;;;4.60;2.60;;;24.90;73.70;;;;;;6338408;22;20301;-85
2022/10/09 09:51:28;;;;;;;6.35;2.30;;;25.00;72.60;;;;;;6338507;22;20018;-83
2022/10/09 09:54:04;;;;;;;6.75;3.40;;;25.00;71.60;;;;;;6336675;22;20005;-85
2022/10/09 09:56:41;;;;;;;3.67;2.50;;;25.00;71.70;;;;;;6336912;22;20014;-84
2022/10/09 09:59:23;;;;;;;6.25;2.72;;;24.90;71.80;;;;;;6337236;22;20010;-85
2022/10/09 10:02:17;;;;;;;5.00;2.28;;;25.00;71.40;;;;;;6337858;22;20326;-81
2022/10/09 10:04:57;;;;;;;5.38;2.30;;;25.10;71.30;;;;;;6332992;22;20307;-81
2022/10/09 10:07:34;;;;;;;3.67;2.00;;;25.30;69.10;;;;;;6331149;22;20010;-82
2022/10/09 10:10:09;;;;;;;4.93;2.65;;;25.40;69.60;;;;;;6331363;22;20009;-86
2022/10/09 10:12:43;;;;;;;3.80;2.35;;;25.60;68.10;;;;;;6331535;22;20051;-86
2022/10/09 10:15:27;;;;;;;6.20;2.60;;;25.60;68.30;;;;;;6331101;22;20048;-85
2022/10/09 10:18:03;;;;;;;4.70;3.10;;;25.60;67.40;;;;;;6338524;22;20003;-86
2022/10/09 10:20:40;;;;;;;6.50;2.70;;;25.40;67.10;;;;;;6339048;22;20432;-87
2022/10/09 10:23:26;;;;;;;7.60;2.78;;;25.50;68.40;;;;;;6311253;22;20025;-85
2022/10/09 10:25:55;;;;;;;6.47;2.80;;;25.40;67.70;;;;;;6339438;22;20078;-82
2022/10/09 10:28:26;;;;;;;4.18;2.40;;;25.40;67.80;;;;;;6337086;22;20106;-82
2022/10/09 10:30:55;;;;;;;4.18;2.47;;;25.40;68.40;;;;;;6338446;22;20398;-82
2022/10/09 10:33:28;;;;;;;4.25;2.85;;;25.40;67.50;;;;;;6336862;22;20005;-82
2022/10/09 10:35:56;;;;;;;4.53;2.33;;;25.40;67.90;;;;;;6308263;22;19999;-82
2022/10/09 10:38:33;;;;;;;6.47;2.72;;;25.30;66.20;;;;;;6337230;22;20270;-83
2022/10/09 10:41:14;;;;;;;9.05;3.40;;;25.30;66.60;;;;;;6337089;22;20007;-83
2022/10/09 10:43:53;;;;;;;6.97;3.20;;;25.30;66.50;;;;;;6310399;22;20052;-86
2022/10/09 10:46:21;;;;;;;4.65;2.40;;;25.30;66.30;;;;;;6309458;22;20013;-86
2022/10/09 10:48:48;;;;;;;6.38;2.63;;;25.30;67.00;;;;;;6337975;22;19999;-80
2022/10/09 10:51:57;;;;;;;10.07;2.70;;;25.30;65.90;;;;;;6337550;22;20026;-87
2022/10/09 10:54:40;;;;;;;6.28;2.90;;;25.20;65.30;;;;;;6337134;22;19998;-85
2022/10/09 10:57:54;;;;;;;7.55;2.60;;;25.20;63.90;;;;;;6336457;22;20014;-85
2022/10/09 11:00:20;;;;;;;8.15;2.92;;;25.30;65.00;;;;;;6309133;22;20014;-86
2022/10/09 11:03:02;;;;;;;4.13;2.10;;;25.40;66.10;;;;;;6336602;22;20079;-86
2022/10/09 11:05:47;;;;;;;5.32;2.70;;;25.60;65.60;;;;;;6338173;22;20007;-81
2022/10/09 11:08:35;;;;;;;4.93;2.55;;;25.80;64.90;;;;;;6336484;22;20006;-81
2022/10/09 11:11:03;;;;;;;5.18;2.58;;;26.10;62.30;;;;;;6337129;22;20056;-87
2022/10/09 11:13:36;;;;;;;8.73;2.50;;;26.30;64.20;;;;;;6336336;22;20052;-85
2022/10/09 11:16:04;;;;;;;6.30;3.10;;;26.60;63.00;;;;;;6336700;22;20009;-85
2022/10/09 11:18:48;;;;;;;3.10;2.38;;;26.70;61.90;;;;;;6337073;22;20294;-86
2022/10/09 11:21:33;;;;;;;5.85;2.45;;;26.90;63.00;;;;;;6336380;22;19999;-82
2022/10/09 11:24:08;;;;;;;4.65;2.67;;;27.20;63.30;;;;;;6337262;22;20325;-81
2022/10/09 11:27:05;;;;;;;5.07;2.75;;;27.60;61.80;;;;;;6337555;22;20030;-81
2022/10/09 11:29:34;;;;;;;5.63;3.08;;;28.10;60.90;;;;;;6337876;22;20079;-86
2022/10/09 11:32:27;;;;;;;4.22;2.92;;;28.50;60.30;;;;;;6336898;22;20005;-86
2022/10/09 11:35:11;;;;;;;8.38;3.13;;;28.90;58.50;;;;;;6336993;22;19999;-85
2022/10/09 11:37:41;;;;;;;6.15;2.75;;;29.20;59.20;;;;;;6337282;22;20421;-86
2022/10/09 11:40:24;;;;;;;7.20;3.30;;;29.40;57.50;;;;;;6337258;22;20025;-86
2022/10/09 11:43:21;;;;;;;5.97;2.78;;;29.80;55.70;;;;;;6337570;22;20003;-86
2022/10/09 11:45:55;;;;;;;5.35;3.10;;;30.10;54.90;;;;;;6311740;22;20350;-86
2022/10/09 11:48:39;;;;;;;7.63;3.42;;;30.20;54.90;;;;;;6336232;22;20440;-85
2022/10/09 11:51:46;;;;;;;7.30;2.65;;;30.30;54.00;;;;;;6331525;22;20437;-81
2022/10/09 11:54:16;;;;;;;6.88;3.10;;;30.20;53.80;;;;;;6326830;22;20007;-85
2022/10/09 11:56:58;;;;;;;4.85;2.67;;;30.20;54.30;;;;;;6325710;22;20023;-80
2022/10/09 11:59:30;;;;;;;5.38;3.00;;;30.30;53.40;;;;;;6336355;22;20014;-80
2022/10/09 12:01:58;;;;;;;11.13;3.40;;;30.30;54.70;;;;;;6309159;22;20419;-81
2022/10/09 12:04:30;;;;;;;10.18;3.40;;;30.30;51.90;;;;;;6334647;22;20003;-81
2022/10/09 12:07:03;;;;;;;6.65;3.47;;;30.20;52.50;;;;;;6308508;22;20037;-81
2022/10/09 12:09:53;;;;;;;9.93;3.10;;;30.30;53.40;;;;;;6309015;22;20045;-81
2022/10/09 12:12:22;;;;;;;7.78;3.58;;;30.30;54.10;;;;;;6307878;22;20007;-81
2022/10/09 12:14:50;;;;;;;8.25;2.70;;;30.50;54.20;;;;;;6334743;22;20063;-80
2022/10/09 12:17:22;;;;;;;5.75;2.60;;;30.40;52.70;;;;;;6307608;22;20007;-80
2022/10/09 12:19:54;;;;;;;7.93;2.88;;;30.30;53.20;;;;;;6337315;22;20003;-80
2022/10/09 12:22:33;;;;;;;7.97;3.10;;;30.40;54.00;;;;;;6336003;22;20006;-84
2022/10/09 12:25:14;;;;;;;9.75;3.30;;;30.60;52.20;;;;;;6337865;22;20386;-80
2022/10/09 12:27:40;;;;;;;6.93;3.03;;;30.50;52.10;;;;;;6337435;22;20069;-80
2022/10/09 12:30:13;;;;;;;6.22;2.67;;;30.40;50.50;;;;;;6335685;22;19994;-80
2022/10/09 12:32:46;;;;;;;8.65;3.08;;;30.30;52.10;;;;;;6334893;22;20424;-80
2022/10/09 12:35:31;;;;;;;8.52;3.13;;;30.30;52.30;;;;;;6337459;22;20449;-81
2022/10/09 12:37:57;;;;;;;5.53;2.85;;;30.30;52.00;;;;;;6326878;22;20017;-81
2022/10/09 12:40:27;;;;;;;7.10;3.53;;;30.20;52.90;;;;;;6338523;22;20034;-81
2022/10/09 12:42:55;;;;;;;9.18;3.17;;;30.20;51.10;;;;;;6338107;22;20003;-80
2022/10/09 12:45:24;;;;;;;7.95;2.88;;;30.20;51.90;;;;;;6338585;22;20079;-80
2022/10/09 12:47:51;;;;;;;12.50;3.72;;;30.10;51.50;;;;;;6338222;22;20433;-81
2022/10/09 12:50:26;;;;;;;9.50;3.22;;;30.10;51.70;;;;;;6337999;22;19999;-81
2022/10/09 12:52:55;;;;;;;7.05;2.97;;;30.10;52.90;;;;;;6336356;22;19995;-80
2022/10/09 12:55:33;;;;;;;7.45;2.47;;;29.80;52.80;;;;;;6310231;22;20099;-81
2022/10/09 12:58:12;;;;;;;12.40;3.42;;;29.50;53.10;;;;;;6338036;22;20011;-81